Terminal Aerodrome Forecast
Issued by NWS Wilmington, OH

Current Version | Previous Version | Graphics & Text | Print | Product List | Glossary On
Versions: 1 2 3 4 5 6 7 8 9 10 11 12 13 14 15 16 17
000
FTUS41 KILN 061132
TAFDAY
TAF
KDAY 061132Z 0612/0712 08008KT P6SM -RA BKN090 OVC110
     FM061300 09008KT 5SM -RA OVC040
     FM061400 10008KT 5SM -RA OVC015
     FM061500 10008KT 3SM -RA BR OVC005
     FM062100 30013G21KT P6SM -DZ OVC007
     FM070200 29010KT P6SM OVC008=

USA.gov is the U.S. government's official web portal to all federal, state and local government web resources and services.